sensor_id;sensor_type;location;lat;lon;timestamp;pressure;altitude;pressure_sealevel;temperature;humidity
24336;BME280;75016;52.400;16.880;2024-01-11T00:00:09;102087.38;;;-4.94;71.86
24336;BME280;75016;52.400;16.880;2024-01-11T00:02:56;102077.48;;;-5.11;72.13
24336;BME280;75016;52.400;16.880;2024-01-11T00:05:22;102083.06;;;-5.35;72.88
24336;BME280;75016;52.400;16.880;2024-01-11T00:07:49;102085.71;;;-5.45;72.72
24336;BME280;75016;52.400;16.880;2024-01-11T00:10:16;102074.88;;;-5.39;73.44
24336;BME280;75016;52.400;16.880;2024-01-11T00:12:42;102069.60;;;-5.32;73.55
24336;BME280;75016;52.400;16.880;2024-01-11T00:15:09;102068.55;;;-5.19;73.68
24336;BME280;75016;52.400;16.880;2024-01-11T00:17:36;102059.73;;;-5.03;73.48
24336;BME280;75016;52.400;16.880;2024-01-11T00:20:02;102055.02;;;-5.22;74.93
24336;BME280;75016;52.400;16.880;2024-01-11T00:22:29;102052.27;;;-5.47;74.42
24336;BME280;75016;52.400;16.880;2024-01-11T00:24:55;102050.09;;;-5.43;74.89
24336;BME280;75016;52.400;16.880;2024-01-11T00:27:22;102048.42;;;-5.37;74.90
24336;BME280;75016;52.400;16.880;2024-01-11T00:29:48;102046.00;;;-5.37;74.85
24336;BME280;75016;52.400;16.880;2024-01-11T00:32:15;102036.04;;;-5.46;74.91
24336;BME280;75016;52.400;16.880;2024-01-11T00:34:42;102007.52;;;-5.43;74.87
24336;BME280;75016;52.400;16.880;2024-01-11T00:37:08;102000.55;;;-5.47;74.82
24336;BME280;75016;52.400;16.880;2024-01-11T00:39:34;101999.48;;;-5.62;75.05
24336;BME280;75016;52.400;16.880;2024-01-11T00:42:01;102015.11;;;-5.83;75.22
24336;BME280;75016;52.400;16.880;2024-01-11T00:44:28;102018.39;;;-5.84;75.46
24336;BME280;75016;52.400;16.880;2024-01-11T00:46:54;102007.49;;;-5.97;75.68
24336;BME280;75016;52.400;16.880;2024-01-11T00:49:21;101986.84;;;-6.03;76.41
24336;BME280;75016;52.400;16.880;2024-01-11T00:51:47;101973.31;;;-6.06;76.63
24336;BME280;75016;52.400;16.880;2024-01-11T00:54:14;101981.00;;;-6.01;77.18
24336;BME280;75016;52.400;16.880;2024-01-11T00:56:40;101989.55;;;-6.07;77.92
24336;BME280;75016;52.400;16.880;2024-01-11T00:59:07;101992.61;;;-6.22;79.28
24336;BME280;75016;52.400;16.880;2024-01-11T01:01:34;101992.06;;;-6.35;79.21
24336;BME280;75016;52.400;16.880;2024-01-11T01:04:00;101999.09;;;-6.38;80.05
24336;BME280;75016;52.400;16.880;2024-01-11T01:06:27;102002.45;;;-6.45;80.45
24336;BME280;75016;52.400;16.880;2024-01-11T01:08:55;102001.36;;;-6.47;80.43
24336;BME280;75016;52.400;16.880;2024-01-11T01:11:21;102000.67;;;-6.47;80.78
24336;BME280;75016;52.400;16.880;2024-01-11T01:13:48;102003.66;;;-6.33;80.91
24336;BME280;75016;52.400;16.880;2024-01-11T01:16:14;102001.73;;;-6.35;81.52
24336;BME280;75016;52.400;16.880;2024-01-11T01:18:41;101994.50;;;-6.45;81.24
24336;BME280;75016;52.400;16.880;2024-01-11T01:21:08;102001.88;;;-6.48;82.01
24336;BME280;75016;52.400;16.880;2024-01-11T01:23:34;102001.50;;;-6.50;82.21
24336;BME280;75016;52.400;16.880;2024-01-11T01:26:01;102004.58;;;-6.51;81.61
24336;BME280;75016;52.400;16.880;2024-01-11T01:28:27;102002.05;;;-6.48;81.52
24336;BME280;75016;52.400;16.880;2024-01-11T01:30:54;102007.09;;;-6.36;81.36
24336;BME280;75016;52.400;16.880;2024-01-11T01:33:20;102007.65;;;-6.21;81.11
24336;BME280;75016;52.400;16.880;2024-01-11T01:35:46;102016.75;;;-6.03;81.26
24336;BME280;75016;52.400;16.880;2024-01-11T01:38:13;102020.63;;;-5.84;80.85
24336;BME280;75016;52.400;16.880;2024-01-11T01:40:39;102001.67;;;-5.79;80.57
24336;BME280;75016;52.400;16.880;2024-01-11T01:43:07;101997.98;;;-5.97;80.45
24336;BME280;75016;52.400;16.880;2024-01-11T01:45:35;101993.65;;;-6.11;80.44
24336;BME280;75016;52.400;16.880;2024-01-11T01:48:02;101995.15;;;-6.25;80.79
24336;BME280;75016;52.400;16.880;2024-01-11T01:50:29;102007.45;;;-6.23;81.05
24336;BME280;75016;52.400;16.880;2024-01-11T01:52:56;102004.83;;;-6.02;80.87
24336;BME280;75016;52.400;16.880;2024-01-11T01:55:23;101998.98;;;-5.86;80.76
24336;BME280;75016;52.400;16.880;2024-01-11T01:57:50;101994.58;;;-5.92;80.80
24336;BME280;75016;52.400;16.880;2024-01-11T02:00:18;101982.50;;;-6.04;80.87
24336;BME280;75016;52.400;16.880;2024-01-11T02:02:46;101975.52;;;-6.20;81.24
24336;BME280;75016;52.400;16.880;2024-01-11T02:05:16;101972.39;;;-6.32;82.44
24336;BME280;75016;52.400;16.880;2024-01-11T02:07:44;101991.74;;;-6.33;82.36
24336;BME280;75016;52.400;16.880;2024-01-11T02:10:11;101982.18;;;-6.14;82.31
24336;BME280;75016;52.400;16.880;2024-01-11T02:12:38;101983.79;;;-6.11;82.09
24336;BME280;75016;52.400;16.880;2024-01-11T02:15:06;101996.34;;;-6.04;82.13
24336;BME280;75016;52.400;16.880;2024-01-11T02:17:33;102004.98;;;-5.90;82.03
24336;BME280;75016;52.400;16.880;2024-01-11T02:20:00;102015.59;;;-5.73;81.57
24336;BME280;75016;52.400;16.880;2024-01-11T02:22:30;102003.52;;;-5.71;81.33
24336;BME280;75016;52.400;16.880;2024-01-11T02:24:58;101998.52;;;-5.69;81.51
24336;BME280;75016;52.400;16.880;2024-01-11T02:27:24;101999.41;;;-5.54;81.43
24336;BME280;75016;52.400;16.880;2024-01-11T02:29:51;101998.61;;;-5.36;81.41
24336;BME280;75016;52.400;16.880;2024-01-11T02:32:17;101999.84;;;-5.19;81.55
24336;BME280;75016;52.400;16.880;2024-01-11T02:34:44;102005.11;;;-5.11;81.24
24336;BME280;75016;52.400;16.880;2024-01-11T02:37:11;102006.51;;;-5.11;80.78
24336;BME280;75016;52.400;16.880;2024-01-11T02:39:37;101994.90;;;-5.11;80.90
24336;BME280;75016;52.400;16.880;2024-01-11T02:42:04;101988.60;;;-5.02;80.93
24336;BME280;75016;52.400;16.880;2024-01-11T02:44:31;101991.25;;;-4.97;81.10
24336;BME280;75016;52.400;16.880;2024-01-11T02:46:58;101984.57;;;-5.22;80.93
24336;BME280;75016;52.400;16.880;2024-01-11T02:49:24;101965.64;;;-5.42;81.18
24336;BME280;75016;52.400;16.880;2024-01-11T02:51:51;101953.44;;;-5.51;81.21
24336;BME280;75016;52.400;16.880;2024-01-11T02:54:17;101950.17;;;-5.62;81.23
24336;BME280;75016;52.400;16.880;2024-01-11T02:56:44;101954.46;;;-5.51;82.05
24336;BME280;75016;52.400;16.880;2024-01-11T02:59:10;101957.41;;;-5.66;82.58
24336;BME280;75016;52.400;16.880;2024-01-11T03:01:37;101967.11;;;-5.64;82.77
24336;BME280;75016;52.400;16.880;2024-01-11T03:04:03;101970.28;;;-5.45;82.91
24336;BME280;75016;52.400;16.880;2024-01-11T03:06:30;101973.05;;;-5.30;83.25
24336;BME280;75016;52.400;16.880;2024-01-11T03:08:57;101965.46;;;-5.44;83.10
24336;BME280;75016;52.400;16.880;2024-01-11T03:11:23;101965.09;;;-5.46;83.01
24336;BME280;75016;52.400;16.880;2024-01-11T03:13:50;101965.31;;;-5.55;83.35
24336;BME280;75016;52.400;16.880;2024-01-11T03:16:16;101960.27;;;-5.57;84.21
24336;BME280;75016;52.400;16.880;2024-01-11T03:18:42;101953.24;;;-5.66;85.41
24336;BME280;75016;52.400;16.880;2024-01-11T03:21:09;101959.86;;;-5.76;86.31
24336;BME280;75016;52.400;16.880;2024-01-11T03:23:35;101967.94;;;-5.67;85.96
24336;BME280;75016;52.400;16.880;2024-01-11T03:26:02;101970.58;;;-5.63;86.30
24336;BME280;75016;52.400;16.880;2024-01-11T03:28:29;101960.09;;;-5.72;86.89
24336;BME280;75016;52.400;16.880;2024-01-11T03:30:55;101948.15;;;-5.86;87.63
24336;BME280;75016;52.400;16.880;2024-01-11T03:33:22;101953.19;;;-5.85;87.59
24336;BME280;75016;52.400;16.880;2024-01-11T03:35:48;101956.33;;;-5.82;87.30
24336;BME280;75016;52.400;16.880;2024-01-11T03:38:15;101952.91;;;-5.78;87.82
24336;BME280;75016;52.400;16.880;2024-01-11T03:40:41;101949.80;;;-5.79;88.40
24336;BME280;75016;52.400;16.880;2024-01-11T03:43:08;101948.58;;;-5.81;88.44
24336;BME280;75016;52.400;16.880;2024-01-11T03:45:34;101944.63;;;-5.78;88.91
24336;BME280;75016;52.400;16.880;2024-01-11T03:48:00;101944.36;;;-5.71;89.91
24336;BME280;75016;52.400;16.880;2024-01-11T03:50:27;101939.77;;;-5.80;90.18
24336;BME280;75016;52.400;16.880;2024-01-11T03:52:53;101935.10;;;-5.79;90.14
24336;BME280;75016;52.400;16.880;2024-01-11T03:55:20;101931.90;;;-5.71;90.28
24336;BME280;75016;52.400;16.880;2024-01-11T03:57:47;101917.06;;;-5.69;90.26
24336;BME280;75016;52.400;16.880;2024-01-11T04:00:14;101905.44;;;-5.72;90.10
24336;BME280;75016;52.400;16.880;2024-01-11T04:02:40;101912.95;;;-5.66;90.10
24336;BME280;75016;52.400;16.880;2024-01-11T04:05:07;101913.08;;;-5.55;90.19
24336;BME280;75016;52.400;16.880;2024-01-11T04:07:34;101913.24;;;-5.55;89.91
24336;BME280;75016;52.400;16.880;2024-01-11T04:10:00;101919.36;;;-5.50;89.97
24336;BME280;75016;52.400;16.880;2024-01-11T04:12:27;101926.23;;;-5.39;89.97
24336;BME280;75016;52.400;16.880;2024-01-11T04:14:53;101933.90;;;-5.33;90.05
24336;BME280;75016;52.400;16.880;2024-01-11T04:17:20;101935.71;;;-5.26;89.88
24336;BME280;75016;52.400;16.880;2024-01-11T04:19:46;101921.55;;;-5.24;90.22
24336;BME280;75016;52.400;16.880;2024-01-11T04:22:12;101920.14;;;-5.27;90.01
24336;BME280;75016;52.400;16.880;2024-01-11T04:24:42;101904.19;;;-5.29;90.26
24336;BME280;75016;52.400;16.880;2024-01-11T04:27:09;101899.08;;;-5.20;90.20
24336;BME280;75016;52.400;16.880;2024-01-11T04:29:35;101901.08;;;-5.12;89.96
24336;BME280;75016;52.400;16.880;2024-01-11T04:32:02;101885.83;;;-5.12;89.92
24336;BME280;75016;52.400;16.880;2024-01-11T04:34:29;101872.33;;;-5.12;90.12
24336;BME280;75016;52.400;16.880;2024-01-11T04:36:56;101859.88;;;-5.12;90.25
24336;BME280;75016;52.400;16.880;2024-01-11T04:39:22;101852.93;;;-5.14;90.79
24336;BME280;75016;52.400;16.880;2024-01-11T04:41:48;101853.30;;;-5.09;90.86
24336;BME280;75016;52.400;16.880;2024-01-11T04:44:15;101850.74;;;-5.05;91.08
24336;BME280;75016;52.400;16.880;2024-01-11T04:46:41;101852.23;;;-4.94;90.42
24336;BME280;75016;52.400;16.880;2024-01-11T04:49:08;101841.16;;;-4.93;90.96
24336;BME280;75016;52.400;16.880;2024-01-11T04:51:34;101834.38;;;-4.96;91.19
24336;BME280;75016;52.400;16.880;2024-01-11T04:54:01;101839.66;;;-4.85;91.01
24336;BME280;75016;52.400;16.880;2024-01-11T04:56:27;101849.58;;;-4.80;91.47
24336;BME280;75016;52.400;16.880;2024-01-11T04:58:55;101839.75;;;-4.73;91.16
24336;BME280;75016;52.400;16.880;2024-01-11T05:01:22;101831.46;;;-4.69;91.25
24336;BME280;75016;52.400;16.880;2024-01-11T05:03:49;101837.19;;;-4.68;91.60
24336;BME280;75016;52.400;16.880;2024-01-11T05:06:18;101819.90;;;-4.62;92.09
24336;BME280;75016;52.400;16.880;2024-01-11T05:08:52;101812.98;;;-4.59;92.39
24336;BME280;75016;52.400;16.880;2024-01-11T05:11:20;101795.19;;;-4.50;92.44
24336;BME280;75016;52.400;16.880;2024-01-11T05:13:48;101797.27;;;-4.48;93.29
24336;BME280;75016;52.400;16.880;2024-01-11T05:16:25;101802.35;;;-4.39;93.40
24336;BME280;75016;52.400;16.880;2024-01-11T05:18:54;101808.13;;;-4.29;93.45
24336;BME280;75016;52.400;16.880;2024-01-11T05:21:21;101793.92;;;-4.24;93.62
24336;BME280;75016;52.400;16.880;2024-01-11T05:23:48;101800.34;;;-4.25;93.50
24336;BME280;75016;52.400;16.880;2024-01-11T05:26:16;101803.86;;;-4.13;93.45
24336;BME280;75016;52.400;16.880;2024-01-11T05:28:43;101793.84;;;-3.99;93.58
24336;BME280;75016;52.400;16.880;2024-01-11T05:31:11;101792.84;;;-3.91;93.48
24336;BME280;75016;52.400;16.880;2024-01-11T05:33:38;101793.04;;;-3.83;94.38
24336;BME280;75016;52.400;16.880;2024-01-11T05:36:06;101789.55;;;-3.86;94.83
24336;BME280;75016;52.400;16.880;2024-01-11T05:38:32;101788.52;;;-3.84;94.95
24336;BME280;75016;52.400;16.880;2024-01-11T05:40:59;101787.13;;;-3.86;95.60
24336;BME280;75016;52.400;16.880;2024-01-11T05:43:26;101789.55;;;-3.82;95.52
24336;BME280;75016;52.400;16.880;2024-01-11T05:45:52;101791.83;;;-3.82;96.17
24336;BME280;75016;52.400;16.880;2024-01-11T05:48:19;101789.73;;;-3.80;96.43
24336;BME280;75016;52.400;16.880;2024-01-11T05:50:45;101787.50;;;-3.72;96.83
24336;BME280;75016;52.400;16.880;2024-01-11T05:53:12;101784.21;;;-3.70;96.85
24336;BME280;75016;52.400;16.880;2024-01-11T05:55:39;101782.81;;;-3.73;97.01
24336;BME280;75016;52.400;16.880;2024-01-11T05:58:06;101787.84;;;-3.75;97.16
24336;BME280;75016;52.400;16.880;2024-01-11T06:00:33;101788.55;;;-3.69;97.54
24336;BME280;75016;52.400;16.880;2024-01-11T06:02:59;101796.73;;;-3.62;97.58
24336;BME280;75016;52.400;16.880;2024-01-11T06:05:26;101790.13;;;-3.62;97.52
24336;BME280;75016;52.400;16.880;2024-01-11T06:07:53;101780.77;;;-3.57;97.65
24336;BME280;75016;52.400;16.880;2024-01-11T06:10:19;101784.92;;;-3.53;97.77
24336;BME280;75016;52.400;16.880;2024-01-11T06:12:46;101766.88;;;-3.53;97.51
24336;BME280;75016;52.400;16.880;2024-01-11T06:15:12;101748.83;;;-3.54;98.13
24336;BME280;75016;52.400;16.880;2024-01-11T06:17:39;101745.36;;;-3.59;98.52
24336;BME280;75016;52.400;16.880;2024-01-11T06:20:05;101751.77;;;-3.62;99.32
24336;BME280;75016;52.400;16.880;2024-01-11T06:22:32;101745.01;;;-3.63;99.88
24336;BME280;75016;52.400;16.880;2024-01-11T06:24:58;101747.27;;;-3.65;100.00
24336;BME280;75016;52.400;16.880;2024-01-11T06:27:26;101740.66;;;-3.59;100.00
24336;BME280;75016;52.400;16.880;2024-01-11T06:29:52;101751.42;;;-3.60;100.00
24336;BME280;75016;52.400;16.880;2024-01-11T06:32:19;101748.81;;;-3.65;100.00
24336;BME280;75016;52.400;16.880;2024-01-11T06:34:45;101739.96;;;-3.68;100.00
24336;BME280;75016;52.400;16.880;2024-01-11T06:37:13;101737.19;;;-3.70;100.00
24336;BME280;75016;52.400;16.880;2024-01-11T06:39:40;101737.36;;;-3.78;100.00
24336;BME280;75016;52.400;16.880;2024-01-11T06:42:06;101744.30;;;-3.73;100.00
24336;BME280;75016;52.400;16.880;2024-01-11T06:44:33;101742.75;;;-3.64;100.00
24336;BME280;75016;52.400;16.880;2024-01-11T06:46:59;101736.69;;;-3.52;100.00
24336;BME280;75016;52.400;16.880;2024-01-11T06:49:27;101748.31;;;-3.42;100.00
24336;BME280;75016;52.400;16.880;2024-01-11T06:51:54;101753.35;;;-3.26;100.00
24336;BME280;75016;52.400;16.880;2024-01-11T06:54:20;101741.72;;;-3.26;100.00
24336;BME280;75016;52.400;16.880;2024-01-11T06:56:47;101738.43;;;-3.33;100.00
24336;BME280;75016;52.400;16.880;2024-01-11T06:59:13;101740.17;;;-3.32;100.00
24336;BME280;75016;52.400;16.880;2024-01-11T07:01:40;101729.05;;;-3.36;100.00
24336;BME280;75016;52.400;16.880;2024-01-11T07:04:06;101732.87;;;-3.27;100.00
24336;BME280;75016;52.400;16.880;2024-01-11T07:06:33;101729.73;;;-3.17;100.00
24336;BME280;75016;52.400;16.880;2024-01-11T07:08:59;101724.88;;;-3.17;100.00
24336;BME280;75016;52.400;16.880;2024-01-11T07:11:26;101730.77;;;-3.24;100.00
24336;BME280;75016;52.400;16.880;2024-01-11T07:13:52;101725.58;;;-3.36;100.00
24336;BME280;75016;52.400;16.880;2024-01-11T07:16:20;101726.09;;;-3.45;100.00
24336;BME280;75016;52.400;16.880;2024-01-11T07:18:46;101732.69;;;-3.41;100.00
24336;BME280;75016;52.400;16.880;2024-01-11T07:21:13;101731.31;;;-3.29;100.00
24336;BME280;75016;52.400;16.880;2024-01-11T07:23:39;101729.20;;;-3.19;100.00
24336;BME280;75016;52.400;16.880;2024-01-11T07:26:06;101734.93;;;-3.14;100.00
24336;BME280;75016;52.400;16.880;2024-01-11T07:28:33;101722.61;;;-3.11;100.00
24336;BME280;75016;52.400;16.880;2024-01-11T07:30:59;101723.46;;;-3.08;100.00
24336;BME280;75016;52.400;16.880;2024-01-11T07:33:25;101718.43;;;-3.11;100.00
24336;BME280;75016;52.400;16.880;2024-01-11T07:35:52;101714.59;;;-3.03;100.00
24336;BME280;75016;52.400;16.880;2024-01-11T07:38:18;101713.73;;;-3.02;100.00
24336;BME280;75016;52.400;16.880;2024-01-11T07:40:45;101711.47;;;-3.01;100.00
24336;BME280;75016;52.400;16.880;2024-01-11T07:43:12;101713.74;;;-3.06;100.00
24336;BME280;75016;52.400;16.880;2024-01-11T07:45:38;101732.13;;;-2.94;100.00
24336;BME280;75016;52.400;16.880;2024-01-11T07:48:05;101737.48;;;-2.85;100.00
24336;BME280;75016;52.400;16.880;2024-01-11T07:50:32;101746.49;;;-2.71;100.00
24336;BME280;75016;52.400;16.880;2024-01-11T07:52:58;101746.10;;;-2.56;100.00
24336;BME280;75016;52.400;16.880;2024-01-11T07:55:25;101745.57;;;-2.55;100.00
24336;BME280;75016;52.400;16.880;2024-01-11T07:57:52;101744.70;;;-2.50;100.00
24336;BME280;75016;52.400;16.880;2024-01-11T08:00:19;101736.35;;;-2.49;100.00
24336;BME280;75016;52.400;16.880;2024-01-11T08:02:45;101726.27;;;-2.50;100.00
24336;BME280;75016;52.400;16.880;2024-01-11T08:05:12;101728.86;;;-2.46;100.00
24336;BME280;75016;52.400;16.880;2024-01-11T08:07:38;101725.69;;;-2.39;100.00
24336;BME280;75016;52.400;16.880;2024-01-11T08:10:06;101726.55;;;-2.32;100.00
24336;BME280;75016;52.400;16.880;2024-01-11T08:12:32;101722.71;;;-2.34;100.00
24336;BME280;75016;52.400;16.880;2024-01-11T08:14:59;101730.23;;;-2.41;100.00
24336;BME280;75016;52.400;16.880;2024-01-11T08:17:26;101721.73;;;-2.44;100.00
24336;BME280;75016;52.400;16.880;2024-01-11T08:19:52;101727.99;;;-2.48;100.00
24336;BME280;75016;52.400;16.880;2024-01-11T08:22:19;101728.88;;;-2.49;100.00
24336;BME280;75016;52.400;16.880;2024-01-11T08:24:46;101729.41;;;-2.54;100.00
24336;BME280;75016;52.400;16.880;2024-01-11T08:27:14;101725.42;;;-2.58;100.00
24336;BME280;75016;52.400;16.880;2024-01-11T08:29:43;101721.08;;;-2.57;100.00
24336;BME280;75016;52.400;16.880;2024-01-11T08:32:10;101710.48;;;-2.58;100.00
24336;BME280;75016;52.400;16.880;2024-01-11T08:34:36;101698.11;;;-2.52;100.00
24336;BME280;75016;52.400;16.880;2024-01-11T08:37:03;101694.77;;;-2.45;100.00
24336;BME280;75016;52.400;16.880;2024-01-11T08:39:29;101694.59;;;-2.40;100.00
24336;BME280;75016;52.400;16.880;2024-01-11T08:41:56;101689.56;;;-2.44;100.00
24336;BME280;75016;52.400;16.880;2024-01-11T08:44:23;101709.72;;;-2.42;100.00
24336;BME280;75016;52.400;16.880;2024-01-11T08:46:49;101726.00;;;-2.30;100.00
24336;BME280;75016;52.400;16.880;2024-01-11T08:49:16;101725.61;;;-2.21;100.00
24336;BME280;75016;52.400;16.880;2024-01-11T08:51:42;101717.73;;;-2.10;100.00
24336;BME280;75016;52.400;16.880;2024-01-11T08:54:08;101710.73;;;-2.02;100.00
24336;BME280;75016;52.400;16.880;2024-01-11T08:56:37;101708.23;;;-1.93;100.00
24336;BME280;75016;52.400;16.880;2024-01-11T08:59:05;101709.64;;;-1.95;100.00
24336;BME280;75016;52.400;16.880;2024-01-11T09:01:31;101716.45;;;-1.99;100.00
24336;BME280;75016;52.400;16.880;2024-01-11T09:03:58;101715.84;;;-1.86;100.00
24336;BME280;75016;52.400;16.880;2024-01-11T09:06:25;101711.25;;;-1.77;100.00
24336;BME280;75016;52.400;16.880;2024-01-11T09:08:53;101717.01;;;-1.78;100.00
24336;BME280;75016;52.400;16.880;2024-01-11T09:11:20;101723.02;;;-1.68;100.00
24336;BME280;75016;52.400;16.880;2024-01-11T09:13:46;101721.91;;;-1.59;100.00
24336;BME280;75016;52.400;16.880;2024-01-11T09:16:16;101724.95;;;-1.66;100.00
24336;BME280;75016;52.400;16.880;2024-01-11T09:18:43;101726.92;;;-1.75;100.00
24336;BME280;75016;52.400;16.880;2024-01-11T09:21:11;101730.58;;;-1.79;100.00
24336;BME280;75016;52.400;16.880;2024-01-11T09:23:37;101726.35;;;-1.68;100.00
24336;BME280;75016;52.400;16.880;2024-01-11T09:26:04;101728.57;;;-1.63;100.00
24336;BME280;75016;52.400;16.880;2024-01-11T09:28:31;101736.14;;;-1.52;100.00
24336;BME280;75016;52.400;16.880;2024-01-11T09:30:57;101729.70;;;-1.52;100.00
24336;BME280;75016;52.400;16.880;2024-01-11T09:33:26;101728.64;;;-1.50;100.00
24336;BME280;75016;52.400;16.880;2024-01-11T09:35:53;101719.94;;;-1.50;100.00
24336;BME280;75016;52.400;16.880;2024-01-11T09:38:20;101718.86;;;-1.46;100.00
24336;BME280;75016;52.400;16.880;2024-01-11T09:40:51;101726.02;;;-1.50;100.00
24336;BME280;75016;52.400;16.880;2024-01-11T09:43:20;101728.86;;;-1.56;100.00
24336;BME280;75016;52.400;16.880;2024-01-11T09:45:49;101732.25;;;-1.45;100.00
24336;BME280;75016;52.400;16.880;2024-01-11T09:48:16;101731.17;;;-1.40;100.00
24336;BME280;75016;52.400;16.880;2024-01-11T09:50:43;101730.64;;;-1.37;100.00
24336;BME280;75016;52.400;16.880;2024-01-11T09:53:11;101726.91;;;-1.30;100.00
24336;BME280;75016;52.400;16.880;2024-01-11T09:55:37;101722.16;;;-1.26;100.00
24336;BME280;75016;52.400;16.880;2024-01-11T09:58:05;101714.49;;;-1.24;100.00
24336;BME280;75016;52.400;16.880;2024-01-11T10:00:32;101712.81;;;-1.32;100.00
24336;BME280;75016;52.400;16.880;2024-01-11T10:02:59;101717.55;;;-1.36;100.00
24336;BME280;75016;52.400;16.880;2024-01-11T10:05:27;101721.13;;;-1.27;100.00
24336;BME280;75016;52.400;16.880;2024-01-11T10:07:55;101713.12;;;-1.26;100.00
24336;BME280;75016;52.400;16.880;2024-01-11T10:10:22;101706.45;;;-1.22;100.00
24336;BME280;75016;52.400;16.880;2024-01-11T10:12:49;101709.65;;;-1.10;100.00
24336;BME280;75016;52.400;16.880;2024-01-11T10:15:15;101708.39;;;-1.06;100.00
24336;BME280;75016;52.400;16.880;2024-01-11T10:17:43;101701.52;;;-0.99;100.00
24336;BME280;75016;52.400;16.880;2024-01-11T10:20:12;101692.34;;;-1.04;100.00
24336;BME280;75016;52.400;16.880;2024-01-11T10:22:40;101685.27;;;-1.11;100.00
24336;BME280;75016;52.400;16.880;2024-01-11T10:27:40;101690.36;;;-1.15;100.00
24336;BME280;75016;52.400;16.880;2024-01-11T10:30:11;101692.42;;;-1.13;100.00
24336;BME280;75016;52.400;16.880;2024-01-11T10:32:39;101693.16;;;-1.16;100.00
24336;BME280;75016;52.400;16.880;2024-01-11T10:35:06;101691.34;;;-1.08;100.00
24336;BME280;75016;52.400;16.880;2024-01-11T10:37:33;101685.15;;;-0.99;100.00
24336;BME280;75016;52.400;16.880;2024-01-11T10:40:05;101680.14;;;-1.04;100.00
24336;BME280;75016;52.400;16.880;2024-01-11T10:42:41;101686.64;;;-1.08;100.00
24336;BME280;75016;52.400;16.880;2024-01-11T10:45:13;101669.60;;;-1.12;100.00
24336;BME280;75016;52.400;16.880;2024-01-11T10:47:53;101665.17;;;-1.21;100.00
24336;BME280;75016;52.400;16.880;2024-01-11T10:50:22;101662.44;;;-1.26;100.00
24336;BME280;75016;52.400;16.880;2024-01-11T10:55:32;101667.52;;;-1.30;100.00
24336;BME280;75016;52.400;16.880;2024-01-11T10:58:02;101677.66;;;-1.17;100.00
24336;BME280;75016;52.400;16.880;2024-01-11T11:00:30;101679.84;;;-1.07;100.00
24336;BME280;75016;52.400;16.880;2024-01-11T11:02:59;101684.59;;;-0.96;100.00
24336;BME280;75016;52.400;16.880;2024-01-11T11:05:28;101678.44;;;-0.91;100.00
24336;BME280;75016;52.400;16.880;2024-01-11T11:07:59;101665.83;;;-0.86;100.00
24336;BME280;75016;52.400;16.880;2024-01-11T11:10:28;101660.86;;;-0.79;100.00
24336;BME280;75016;52.400;16.880;2024-01-11T11:12:56;101674.17;;;-0.68;100.00
24336;BME280;75016;52.400;16.880;2024-01-11T11:15:27;101681.02;;;-0.57;100.00
24336;BME280;75016;52.400;16.880;2024-01-11T11:17:55;101678.07;;;-0.46;100.00
24336;BME280;75016;52.400;16.880;2024-01-11T11:20:22;101679.39;;;-0.39;100.00
24336;BME280;75016;52.400;16.880;2024-01-11T11:23:05;101681.11;;;-0.38;100.00
24336;BME280;75016;52.400;16.880;2024-01-11T11:25:32;101684.49;;;-0.31;100.00
24336;BME280;75016;52.400;16.880;2024-01-11T11:27:58;101678.20;;;-0.28;100.00
24336;BME280;75016;52.400;16.880;2024-01-11T11:30:27;101688.20;;;-0.20;100.00
24336;BME280;75016;52.400;16.880;2024-01-11T11:32:54;101689.30;;;-0.10;100.00
24336;BME280;75016;52.400;16.880;2024-01-11T11:35:23;101679.92;;;-0.02;100.00
24336;BME280;75016;52.400;16.880;2024-01-11T11:37:56;101678.44;;;0.03;100.00
24336;BME280;75016;52.400;16.880;2024-01-11T11:40:38;101667.21;;;0.07;100.00
24336;BME280;75016;52.400;16.880;2024-01-11T11:43:10;101664.70;;;0.11;100.00
24336;BME280;75016;52.400;16.880;2024-01-11T11:45:37;101663.27;;;0.14;100.00
24336;BME280;75016;52.400;16.880;2024-01-11T11:51:15;101666.05;;;0.14;100.00
24336;BME280;75016;52.400;16.880;2024-01-11T11:53:42;101661.25;;;0.20;100.00
24336;BME280;75016;52.400;16.880;2024-01-11T11:56:10;101659.27;;;0.24;100.00
24336;BME280;75016;52.400;16.880;2024-01-11T11:58:37;101650.61;;;0.20;100.00
24336;BME280;75016;52.400;16.880;2024-01-11T12:01:03;101651.63;;;0.21;100.00
24336;BME280;75016;52.400;16.880;2024-01-11T12:03:35;101647.31;;;0.19;100.00
24336;BME280;75016;52.400;16.880;2024-01-11T12:06:07;101639.77;;;0.20;100.00
24336;BME280;75016;52.400;16.880;2024-01-11T12:08:35;101643.77;;;0.22;100.00
24336;BME280;75016;52.400;16.880;2024-01-11T12:11:02;101636.55;;;0.26;100.00
24336;BME280;75016;52.400;16.880;2024-01-11T12:13:29;101638.32;;;0.24;100.00
24336;BME280;75016;52.400;16.880;2024-01-11T12:15:59;101642.81;;;0.27;100.00
24336;BME280;75016;52.400;16.880;2024-01-11T12:18:26;101647.08;;;0.22;100.00
24336;BME280;75016;52.400;16.880;2024-01-11T12:20:53;101651.02;;;0.26;100.00
24336;BME280;75016;52.400;16.880;2024-01-11T12:23:19;101650.59;;;0.31;100.00
24336;BME280;75016;52.400;16.880;2024-01-11T12:25:47;101637.45;;;0.34;100.00
24336;BME280;75016;52.400;16.880;2024-01-11T12:28:14;101634.60;;;0.37;100.00
24336;BME280;75016;52.400;16.880;2024-01-11T12:30:41;101631.30;;;0.46;100.00
24336;BME280;75016;52.400;16.880;2024-01-11T12:33:09;101626.59;;;0.56;100.00
24336;BME280;75016;52.400;16.880;2024-01-11T12:35:36;101626.67;;;0.61;100.00
24336;BME280;75016;52.400;16.880;2024-01-11T12:38:05;101626.23;;;0.66;100.00
24336;BME280;75016;52.400;16.880;2024-01-11T12:40:38;101627.54;;;0.71;100.00
24336;BME280;75016;52.400;16.880;2024-01-11T12:43:05;101630.06;;;0.76;100.00